sensor_id;sensor_type;location;lat;lon;timestamp;P1;durP1;ratioP1;P2;durP2;ratioP2
22622;SDS011;11478;51.094;7.030;2022-12-16T00:02:21;71.35;;;32.92;;
22622;SDS011;11478;51.094;7.030;2022-12-16T00:04:50;73.35;;;33.90;;
22622;SDS011;11478;51.094;7.030;2022-12-16T00:07:17;74.95;;;35.60;;
22622;SDS011;11478;51.094;7.030;2022-12-16T00:09:43;72.65;;;33.10;;
22622;SDS011;11478;51.094;7.030;2022-12-16T00:12:13;72.20;;;33.03;;
22622;SDS011;11478;51.094;7.030;2022-12-16T00:14:39;71.75;;;34.47;;
22622;SDS011;11478;51.094;7.030;2022-12-16T00:17:17;69.10;;;33.35;;
22622;SDS011;11478;51.094;7.030;2022-12-16T00:19:43;74.10;;;34.47;;
22622;SDS011;11478;51.094;7.030;2022-12-16T00:22:18;75.20;;;34.00;;
22622;SDS011;11478;51.094;7.030;2022-12-16T00:24:44;73.28;;;33.92;;
22622;SDS011;11478;51.094;7.030;2022-12-16T00:27:17;73.28;;;32.78;;
22622;SDS011;11478;51.094;7.030;2022-12-16T00:29:43;69.00;;;33.75;;
22622;SDS011;11478;51.094;7.030;2022-12-16T00:32:16;67.63;;;32.55;;
22622;SDS011;11478;51.094;7.030;2022-12-16T00:34:42;58.67;;;26.90;;
22622;SDS011;11478;51.094;7.030;2022-12-16T00:37:09;70.72;;;33.17;;
22622;SDS011;11478;51.094;7.030;2022-12-16T00:39:39;73.88;;;33.28;;
22622;SDS011;11478;51.094;7.030;2022-12-16T00:42:07;68.10;;;33.38;;
22622;SDS011;11478;51.094;7.030;2022-12-16T00:44:38;71.47;;;33.90;;
22622;SDS011;11478;51.094;7.030;2022-12-16T00:47:08;67.88;;;32.38;;
22622;SDS011;11478;51.094;7.030;2022-12-16T00:49:39;69.30;;;32.30;;
22622;SDS011;11478;51.094;7.030;2022-12-16T00:52:05;66.45;;;31.60;;
22622;SDS011;11478;51.094;7.030;2022-12-16T00:54:42;68.85;;;32.40;;
22622;SDS011;11478;51.094;7.030;2022-12-16T00:57:16;68.60;;;31.98;;
22622;SDS011;11478;51.094;7.030;2022-12-16T00:59:43;67.18;;;31.55;;
22622;SDS011;11478;51.094;7.030;2022-12-16T01:02:13;67.78;;;30.45;;
22622;SDS011;11478;51.094;7.030;2022-12-16T01:04:42;65.22;;;31.95;;
22622;SDS011;11478;51.094;7.030;2022-12-16T01:07:13;66.72;;;30.73;;
22622;SDS011;11478;51.094;7.030;2022-12-16T01:09:40;65.32;;;31.92;;
22622;SDS011;11478;51.094;7.030;2022-12-16T01:12:08;66.72;;;32.38;;
22622;SDS011;11478;51.094;7.030;2022-12-16T01:14:36;66.82;;;31.35;;
22622;SDS011;11478;51.094;7.030;2022-12-16T01:17:02;65.18;;;30.73;;
22622;SDS011;11478;51.094;7.030;2022-12-16T01:19:30;64.45;;;30.27;;
22622;SDS011;11478;51.094;7.030;2022-12-16T01:21:56;62.90;;;29.25;;
22622;SDS011;11478;51.094;7.030;2022-12-16T01:24:25;60.50;;;30.20;;
22622;SDS011;11478;51.094;7.030;2022-12-16T01:26:51;63.22;;;29.95;;
22622;SDS011;11478;51.094;7.030;2022-12-16T01:29:21;60.92;;;30.10;;
22622;SDS011;11478;51.094;7.030;2022-12-16T01:31:52;64.40;;;30.05;;
22622;SDS011;11478;51.094;7.030;2022-12-16T01:34:23;67.15;;;30.90;;
22622;SDS011;11478;51.094;7.030;2022-12-16T01:36:57;65.78;;;31.65;;
22622;SDS011;11478;51.094;7.030;2022-12-16T01:39:28;61.85;;;29.45;;
22622;SDS011;11478;51.094;7.030;2022-12-16T01:41:57;58.15;;;28.90;;
22622;SDS011;11478;51.094;7.030;2022-12-16T01:44:24;60.45;;;28.45;;
22622;SDS011;11478;51.094;7.030;2022-12-16T01:46:59;63.33;;;30.67;;
22622;SDS011;11478;51.094;7.030;2022-12-16T01:49:36;59.00;;;29.13;;
22622;SDS011;11478;51.094;7.030;2022-12-16T01:52:15;59.63;;;28.63;;
22622;SDS011;11478;51.094;7.030;2022-12-16T01:54:49;65.63;;;28.83;;
22622;SDS011;11478;51.094;7.030;2022-12-16T01:57:35;61.70;;;28.67;;
22622;SDS011;11478;51.094;7.030;2022-12-16T02:00:14;61.50;;;28.38;;
22622;SDS011;11478;51.094;7.030;2022-12-16T02:02:43;59.13;;;29.90;;
22622;SDS011;11478;51.094;7.030;2022-12-16T02:05:16;60.10;;;29.52;;
22622;SDS011;11478;51.094;7.030;2022-12-16T02:10:25;60.50;;;28.33;;
22622;SDS011;11478;51.094;7.030;2022-12-16T02:27:06;58.78;;;27.98;;
22622;SDS011;11478;51.094;7.030;2022-12-16T02:36:01;56.03;;;26.58;;
22622;SDS011;11478;51.094;7.030;2022-12-16T02:41:31;56.70;;;25.67;;
22622;SDS011;11478;51.094;7.030;2022-12-16T02:44:12;49.13;;;22.60;;
22622;SDS011;11478;51.094;7.030;2022-12-16T02:46:40;54.05;;;27.58;;
22622;SDS011;11478;51.094;7.030;2022-12-16T02:51:50;53.08;;;26.83;;
22622;SDS011;11478;51.094;7.030;2022-12-16T02:54:23;53.15;;;26.88;;
22622;SDS011;11478;51.094;7.030;2022-12-16T02:59:32;57.42;;;25.65;;
22622;SDS011;11478;51.094;7.030;2022-12-16T03:02:21;50.58;;;26.75;;
22622;SDS011;11478;51.094;7.030;2022-12-16T03:05:07;54.25;;;25.67;;
22622;SDS011;11478;51.094;7.030;2022-12-16T03:07:39;51.85;;;25.35;;
22622;SDS011;11478;51.094;7.030;2022-12-16T03:10:14;49.33;;;21.05;;
22622;SDS011;11478;51.094;7.030;2022-12-16T03:12:46;56.53;;;25.55;;
22622;SDS011;11478;51.094;7.030;2022-12-16T03:17:49;54.67;;;25.50;;
22622;SDS011;11478;51.094;7.030;2022-12-16T03:23:14;54.58;;;26.08;;
22622;SDS011;11478;51.094;7.030;2022-12-16T03:28:31;48.72;;;24.80;;
22622;SDS011;11478;51.094;7.030;2022-12-16T03:33:59;55.20;;;26.73;;
22622;SDS011;11478;51.094;7.030;2022-12-16T03:36:45;50.40;;;24.40;;
22622;SDS011;11478;51.094;7.030;2022-12-16T03:39:21;46.75;;;23.45;;
22622;SDS011;11478;51.094;7.030;2022-12-16T03:41:59;48.92;;;23.73;;
22622;SDS011;11478;51.094;7.030;2022-12-16T03:44:34;50.42;;;24.65;;
22622;SDS011;11478;51.094;7.030;2022-12-16T03:47:11;53.50;;;25.13;;
22622;SDS011;11478;51.094;7.030;2022-12-16T03:49:45;49.15;;;24.88;;
22622;SDS011;11478;51.094;7.030;2022-12-16T03:52:12;53.45;;;24.10;;
22622;SDS011;11478;51.094;7.030;2022-12-16T03:54:43;46.47;;;23.45;;
22622;SDS011;11478;51.094;7.030;2022-12-16T03:57:11;49.47;;;23.60;;
22622;SDS011;11478;51.094;7.030;2022-12-16T03:59:43;46.67;;;22.67;;
22622;SDS011;11478;51.094;7.030;2022-12-16T04:02:12;50.10;;;23.67;;
22622;SDS011;11478;51.094;7.030;2022-12-16T04:04:44;53.10;;;25.63;;
22622;SDS011;11478;51.094;7.030;2022-12-16T04:07:13;51.20;;;24.40;;
22622;SDS011;11478;51.094;7.030;2022-12-16T04:09:48;51.13;;;23.48;;
22622;SDS011;11478;51.094;7.030;2022-12-16T04:12:19;45.55;;;22.33;;
22622;SDS011;11478;51.094;7.030;2022-12-16T04:15:04;47.17;;;23.08;;
22622;SDS011;11478;51.094;7.030;2022-12-16T04:17:52;43.58;;;22.10;;
22622;SDS011;11478;51.094;7.030;2022-12-16T04:20:39;52.22;;;24.17;;
22622;SDS011;11478;51.094;7.030;2022-12-16T04:23:27;50.33;;;23.58;;
22622;SDS011;11478;51.094;7.030;2022-12-16T04:26:17;47.08;;;23.73;;
22622;SDS011;11478;51.094;7.030;2022-12-16T04:28:52;41.45;;;21.25;;
22622;SDS011;11478;51.094;7.030;2022-12-16T04:31:28;49.42;;;23.90;;
22622;SDS011;11478;51.094;7.030;2022-12-16T04:34:20;70.50;;;35.67;;
22622;SDS011;11478;51.094;7.030;2022-12-16T04:37:15;46.42;;;23.67;;
22622;SDS011;11478;51.094;7.030;2022-12-16T04:40:00;47.42;;;22.90;;
22622;SDS011;11478;51.094;7.030;2022-12-16T04:42:49;49.15;;;22.70;;
22622;SDS011;11478;51.094;7.030;2022-12-16T04:45:42;45.70;;;22.88;;
22622;SDS011;11478;51.094;7.030;2022-12-16T04:48:29;45.95;;;23.27;;
22622;SDS011;11478;51.094;7.030;2022-12-16T04:51:14;42.47;;;21.23;;
22622;SDS011;11478;51.094;7.030;2022-12-16T04:54:01;45.28;;;22.33;;
22622;SDS011;11478;51.094;7.030;2022-12-16T04:56:46;46.30;;;22.88;;
22622;SDS011;11478;51.094;7.030;2022-12-16T04:59:34;45.75;;;21.80;;
22622;SDS011;11478;51.094;7.030;2022-12-16T05:02:27;48.60;;;22.02;;
22622;SDS011;11478;51.094;7.030;2022-12-16T05:05:15;49.58;;;23.77;;
22622;SDS011;11478;51.094;7.030;2022-12-16T05:08:05;46.78;;;22.30;;
22622;SDS011;11478;51.094;7.030;2022-12-16T05:10:53;46.53;;;21.45;;
22622;SDS011;11478;51.094;7.030;2022-12-16T05:13:38;46.42;;;21.20;;
22622;SDS011;11478;51.094;7.030;2022-12-16T05:19:23;47.20;;;21.55;;
22622;SDS011;11478;51.094;7.030;2022-12-16T05:22:37;43.10;;;21.15;;
22622;SDS011;11478;51.094;7.030;2022-12-16T05:25:25;42.70;;;20.67;;
22622;SDS011;11478;51.094;7.030;2022-12-16T05:28:09;41.50;;;20.10;;
22622;SDS011;11478;51.094;7.030;2022-12-16T05:30:54;45.03;;;20.15;;
22622;SDS011;11478;51.094;7.030;2022-12-16T05:33:41;42.47;;;20.00;;
22622;SDS011;11478;51.094;7.030;2022-12-16T05:46:47;36.95;;;19.08;;
22622;SDS011;11478;51.094;7.030;2022-12-16T05:52:08;37.88;;;18.73;;
22622;SDS011;11478;51.094;7.030;2022-12-16T05:54:53;40.30;;;18.85;;
22622;SDS011;11478;51.094;7.030;2022-12-16T05:57:43;36.75;;;18.63;;
22622;SDS011;11478;51.094;7.030;2022-12-16T06:00:27;37.10;;;17.63;;
22622;SDS011;11478;51.094;7.030;2022-12-16T06:03:27;39.00;;;19.23;;
22622;SDS011;11478;51.094;7.030;2022-12-16T06:06:21;37.22;;;17.45;;
22622;SDS011;11478;51.094;7.030;2022-12-16T06:09:12;37.65;;;17.88;;
22622;SDS011;11478;51.094;7.030;2022-12-16T06:11:56;39.40;;;17.92;;
22622;SDS011;11478;51.094;7.030;2022-12-16T06:17:29;43.20;;;17.92;;
22622;SDS011;11478;51.094;7.030;2022-12-16T06:20:17;36.47;;;18.65;;
22622;SDS011;11478;51.094;7.030;2022-12-16T06:23:01;35.42;;;17.52;;
22622;SDS011;11478;51.094;7.030;2022-12-16T06:25:46;45.00;;;17.70;;
22622;SDS011;11478;51.094;7.030;2022-12-16T06:28:34;61.92;;;25.00;;
22622;SDS011;11478;51.094;7.030;2022-12-16T06:31:24;36.20;;;17.52;;
22622;SDS011;11478;51.094;7.030;2022-12-16T06:34:08;40.33;;;18.17;;
22622;SDS011;11478;51.094;7.030;2022-12-16T06:36:53;37.42;;;17.33;;
22622;SDS011;11478;51.094;7.030;2022-12-16T06:39:37;38.05;;;16.80;;
22622;SDS011;11478;51.094;7.030;2022-12-16T06:42:22;35.85;;;17.27;;
22622;SDS011;11478;51.094;7.030;2022-12-16T06:45:09;37.97;;;17.05;;
22622;SDS011;11478;51.094;7.030;2022-12-16T06:47:55;33.95;;;16.30;;
22622;SDS011;11478;51.094;7.030;2022-12-16T06:50:41;35.35;;;16.88;;
22622;SDS011;11478;51.094;7.030;2022-12-16T06:53:25;34.47;;;15.75;;
22622;SDS011;11478;51.094;7.030;2022-12-16T06:56:35;37.20;;;16.27;;
22622;SDS011;11478;51.094;7.030;2022-12-16T06:59:30;38.00;;;16.48;;
22622;SDS011;11478;51.094;7.030;2022-12-16T07:02:20;37.10;;;16.77;;
22622;SDS011;11478;51.094;7.030;2022-12-16T07:05:08;36.78;;;17.10;;
22622;SDS011;11478;51.094;7.030;2022-12-16T07:07:52;39.13;;;17.25;;
22622;SDS011;11478;51.094;7.030;2022-12-16T07:10:42;39.95;;;17.25;;
22622;SDS011;11478;51.094;7.030;2022-12-16T07:13:29;32.65;;;15.93;;
22622;SDS011;11478;51.094;7.030;2022-12-16T07:16:15;35.28;;;16.20;;
22622;SDS011;11478;51.094;7.030;2022-12-16T07:19:00;31.25;;;16.35;;
22622;SDS011;11478;51.094;7.030;2022-12-16T07:21:48;32.25;;;15.38;;
22622;SDS011;11478;51.094;7.030;2022-12-16T07:24:33;33.03;;;15.75;;
22622;SDS011;11478;51.094;7.030;2022-12-16T07:27:23;35.85;;;15.48;;
22622;SDS011;11478;51.094;7.030;2022-12-16T07:30:07;35.08;;;15.68;;
22622;SDS011;11478;51.094;7.030;2022-12-16T07:32:52;31.98;;;15.15;;
22622;SDS011;11478;51.094;7.030;2022-12-16T07:35:37;34.53;;;15.32;;
22622;SDS011;11478;51.094;7.030;2022-12-16T07:38:23;34.78;;;15.85;;
22622;SDS011;11478;51.094;7.030;2022-12-16T07:41:08;33.47;;;16.20;;
22622;SDS011;11478;51.094;7.030;2022-12-16T07:43:52;33.45;;;16.08;;
22622;SDS011;11478;51.094;7.030;2022-12-16T08:07:15;34.78;;;15.80;;
22622;SDS011;11478;51.094;7.030;2022-12-16T08:09:59;29.92;;;15.27;;
22622;SDS011;11478;51.094;7.030;2022-12-16T08:12:46;30.95;;;15.48;;
22622;SDS011;11478;51.094;7.030;2022-12-16T08:15:30;29.83;;;14.88;;
22622;SDS011;11478;51.094;7.030;2022-12-16T08:18:14;28.33;;;14.57;;
22622;SDS011;11478;51.094;7.030;2022-12-16T08:20:59;30.30;;;15.07;;
22622;SDS011;11478;51.094;7.030;2022-12-16T08:23:44;29.65;;;15.10;;
22622;SDS011;11478;51.094;7.030;2022-12-16T08:26:29;35.35;;;16.20;;
22622;SDS011;11478;51.094;7.030;2022-12-16T08:29:13;29.38;;;14.68;;
22622;SDS011;11478;51.094;7.030;2022-12-16T08:31:57;32.35;;;16.10;;
22622;SDS011;11478;51.094;7.030;2022-12-16T08:34:43;30.20;;;16.17;;
22622;SDS011;11478;51.094;7.030;2022-12-16T08:37:27;36.47;;;16.52;;
22622;SDS011;11478;51.094;7.030;2022-12-16T08:40:30;32.05;;;15.80;;
22622;SDS011;11478;51.094;7.030;2022-12-16T08:43:14;30.88;;;16.45;;
22622;SDS011;11478;51.094;7.030;2022-12-16T08:46:01;32.47;;;16.48;;
22622;SDS011;11478;51.094;7.030;2022-12-16T08:48:46;30.98;;;15.30;;
22622;SDS011;11478;51.094;7.030;2022-12-16T08:51:31;36.35;;;16.02;;
22622;SDS011;11478;51.094;7.030;2022-12-16T08:54:16;33.33;;;16.05;;
22622;SDS011;11478;51.094;7.030;2022-12-16T08:57:01;32.13;;;16.65;;
22622;SDS011;11478;51.094;7.030;2022-12-16T08:59:45;32.95;;;17.00;;
22622;SDS011;11478;51.094;7.030;2022-12-16T09:02:30;37.47;;;17.67;;
22622;SDS011;11478;51.094;7.030;2022-12-16T09:05:17;33.33;;;16.50;;
22622;SDS011;11478;51.094;7.030;2022-12-16T09:08:02;31.77;;;16.55;;
22622;SDS011;11478;51.094;7.030;2022-12-16T09:10:48;35.67;;;17.23;;
22622;SDS011;11478;51.094;7.030;2022-12-16T09:13:32;36.78;;;17.33;;
22622;SDS011;11478;51.094;7.030;2022-12-16T09:16:21;32.45;;;16.35;;
22622;SDS011;11478;51.094;7.030;2022-12-16T09:19:06;35.83;;;18.48;;
22622;SDS011;11478;51.094;7.030;2022-12-16T09:22:02;35.83;;;18.00;;
22622;SDS011;11478;51.094;7.030;2022-12-16T09:24:46;36.50;;;17.33;;
22622;SDS011;11478;51.094;7.030;2022-12-16T09:27:34;32.83;;;17.17;;
22622;SDS011;11478;51.094;7.030;2022-12-16T09:30:18;36.83;;;18.58;;
22622;SDS011;11478;51.094;7.030;2022-12-16T09:33:03;36.88;;;17.65;;
22622;SDS011;11478;51.094;7.030;2022-12-16T09:35:47;37.42;;;19.63;;
22622;SDS011;11478;51.094;7.030;2022-12-16T09:45:17;42.95;;;21.55;;
22622;SDS011;11478;51.094;7.030;2022-12-16T09:48:09;37.85;;;19.42;;
22622;SDS011;11478;51.094;7.030;2022-12-16T09:51:13;37.50;;;19.33;;
22622;SDS011;11478;51.094;7.030;2022-12-16T09:54:00;39.15;;;20.23;;
22622;SDS011;11478;51.094;7.030;2022-12-16T09:56:45;38.42;;;21.27;;
22622;SDS011;11478;51.094;7.030;2022-12-16T09:59:35;43.78;;;22.23;;
22622;SDS011;11478;51.094;7.030;2022-12-16T10:02:22;47.47;;;24.17;;
22622;SDS011;11478;51.094;7.030;2022-12-16T10:05:09;51.95;;;27.25;;
22622;SDS011;11478;51.094;7.030;2022-12-16T10:08:00;54.25;;;28.67;;
22622;SDS011;11478;51.094;7.030;2022-12-16T10:13:56;41.72;;;20.77;;
22622;SDS011;11478;51.094;7.030;2022-12-16T10:16:56;51.88;;;26.83;;
22622;SDS011;11478;51.094;7.030;2022-12-16T10:25:39;57.28;;;29.00;;
22622;SDS011;11478;51.094;7.030;2022-12-16T10:29:24;58.30;;;28.45;;
22622;SDS011;11478;51.094;7.030;2022-12-16T10:32:18;68.38;;;30.80;;
22622;SDS011;11478;51.094;7.030;2022-12-16T10:35:20;56.85;;;29.15;;
22622;SDS011;11478;51.094;7.030;2022-12-16T10:41:28;60.92;;;30.23;;
22622;SDS011;11478;51.094;7.030;2022-12-16T10:47:37;65.63;;;32.10;;
22622;SDS011;11478;51.094;7.030;2022-12-16T10:50:24;66.50;;;33.75;;
22622;SDS011;11478;51.094;7.030;2022-12-16T10:59:05;60.30;;;31.52;;
22622;SDS011;11478;51.094;7.030;2022-12-16T11:02:02;64.72;;;32.60;;
22622;SDS011;11478;51.094;7.030;2022-12-16T11:11:24;69.78;;;34.63;;
22622;SDS011;11478;51.094;7.030;2022-12-16T11:14:16;66.30;;;34.30;;
22622;SDS011;11478;51.094;7.030;2022-12-16T11:17:32;69.15;;;36.03;;
22622;SDS011;11478;51.094;7.030;2022-12-16T11:20:21;70.65;;;35.72;;
22622;SDS011;11478;51.094;7.030;2022-12-16T11:23:21;71.05;;;37.13;;
22622;SDS011;11478;51.094;7.030;2022-12-16T11:26:14;66.68;;;34.03;;
22622;SDS011;11478;51.094;7.030;2022-12-16T11:32:18;80.32;;;37.67;;
22622;SDS011;11478;51.094;7.030;2022-12-16T11:35:09;72.68;;;36.78;;
22622;SDS011;11478;51.094;7.030;2022-12-16T11:38:28;71.35;;;37.00;;
22622;SDS011;11478;51.094;7.030;2022-12-16T11:41:34;67.32;;;35.33;;
22622;SDS011;11478;51.094;7.030;2022-12-16T11:44:23;69.55;;;36.15;;
22622;SDS011;11478;51.094;7.030;2022-12-16T11:50:25;77.32;;;37.95;;
22622;SDS011;11478;51.094;7.030;2022-12-16T11:56:27;59.83;;;31.52;;
22622;SDS011;11478;51.094;7.030;2022-12-16T12:11:28;63.85;;;32.08;;
22622;SDS011;11478;51.094;7.030;2022-12-16T12:20:41;82.45;;;41.55;;
22622;SDS011;11478;51.094;7.030;2022-12-16T12:33:19;104.47;;;50.20;;
22622;SDS011;11478;51.094;7.030;2022-12-16T12:42:50;102.32;;;48.80;;
22622;SDS011;11478;51.094;7.030;2022-12-16T12:49:09;103.18;;;48.92;;
22622;SDS011;11478;51.094;7.030;2022-12-16T12:57:51;96.78;;;50.33;;
22622;SDS011;11478;51.094;7.030;2022-12-16T13:00:39;102.88;;;51.80;;
22622;SDS011;11478;51.094;7.030;2022-12-16T13:06:21;78.97;;;39.50;;
22622;SDS011;11478;51.094;7.030;2022-12-16T13:09:23;100.95;;;50.72;;
22622;SDS011;11478;51.094;7.030;2022-12-16T13:12:23;82.43;;;40.28;;
22622;SDS011;11478;51.094;7.030;2022-12-16T13:18:29;118.40;;;53.13;;
22622;SDS011;11478;51.094;7.030;2022-12-16T13:27:27;109.45;;;51.97;;
22622;SDS011;11478;51.094;7.030;2022-12-16T13:30:32;99.78;;;48.55;;
22622;SDS011;11478;51.094;7.030;2022-12-16T13:33:25;107.32;;;50.60;;
22622;SDS011;11478;51.094;7.030;2022-12-16T13:36:36;111.50;;;50.85;;
22622;SDS011;11478;51.094;7.030;2022-12-16T13:39:42;109.78;;;50.13;;
22622;SDS011;11478;51.094;7.030;2022-12-16T13:45:34;106.75;;;50.88;;
22622;SDS011;11478;51.094;7.030;2022-12-16T13:48:39;107.15;;;50.65;;
22622;SDS011;11478;51.094;7.030;2022-12-16T13:54:35;122.63;;;51.97;;
22622;SDS011;11478;51.094;7.030;2022-12-16T14:00:20;114.75;;;48.40;;
22622;SDS011;11478;51.094;7.030;2022-12-16T14:03:56;112.93;;;49.15;;
22622;SDS011;11478;51.094;7.030;2022-12-16T14:06:28;109.85;;;50.97;;
22622;SDS011;11478;51.094;7.030;2022-12-16T14:09:26;105.93;;;49.25;;
22622;SDS011;11478;51.094;7.030;2022-12-16T14:15:57;89.57;;;41.22;;
22622;SDS011;11478;51.094;7.030;2022-12-16T14:25:19;108.28;;;50.67;;
22622;SDS011;11478;51.094;7.030;2022-12-16T14:28:21;108.88;;;50.33;;
22622;SDS011;11478;51.094;7.030;2022-12-16T14:31:13;109.20;;;52.78;;
22622;SDS011;11478;51.094;7.030;2022-12-16T14:34:12;105.88;;;49.35;;
22622;SDS011;11478;51.094;7.030;2022-12-16T14:40:27;105.15;;;48.75;;
22622;SDS011;11478;51.094;7.030;2022-12-16T14:43:14;104.60;;;47.15;;
22622;SDS011;11478;51.094;7.030;2022-12-16T14:46:04;108.30;;;48.80;;
22622;SDS011;11478;51.094;7.030;2022-12-16T14:48:49;103.32;;;47.67;;
22622;SDS011;11478;51.094;7.030;2022-12-16T14:51:35;100.10;;;46.85;;
22622;SDS011;11478;51.094;7.030;2022-12-16T14:54:22;118.57;;;50.50;;
22622;SDS011;11478;51.094;7.030;2022-12-16T14:57:18;103.95;;;49.17;;
22622;SDS011;11478;51.094;7.030;2022-12-16T15:02:56;105.65;;;48.83;;
22622;SDS011;11478;51.094;7.030;2022-12-16T15:06:04;117.32;;;50.58;;
22622;SDS011;11478;51.094;7.030;2022-12-16T15:08:56;111.55;;;49.03;;
22622;SDS011;11478;51.094;7.030;2022-12-16T15:15:08;105.30;;;48.13;;
22622;SDS011;11478;51.094;7.030;2022-12-16T15:18:00;101.63;;;45.78;;
22622;SDS011;11478;51.094;7.030;2022-12-16T15:20:52;103.30;;;46.80;;
22622;SDS011;11478;51.094;7.030;2022-12-16T15:23:41;117.05;;;50.42;;
22622;SDS011;11478;51.094;7.030;2022-12-16T15:26:31;153.52;;;57.40;;
22622;SDS011;11478;51.094;7.030;2022-12-16T15:36:01;176.73;;;64.60;;
22622;SDS011;11478;51.094;7.030;2022-12-16T15:38:47;164.70;;;63.13;;
22622;SDS011;11478;51.094;7.030;2022-12-16T15:41:33;157.57;;;60.95;;
22622;SDS011;11478;51.094;7.030;2022-12-16T15:44:23;141.52;;;56.13;;
22622;SDS011;11478;51.094;7.030;2022-12-16T15:47:19;153.10;;;59.22;;
22622;SDS011;11478;51.094;7.030;2022-12-16T15:50:23;159.93;;;58.58;;
22622;SDS011;11478;51.094;7.030;2022-12-16T15:53:24;210.65;;;63.85;;
22622;SDS011;11478;51.094;7.030;2022-12-16T15:56:42;346.25;;;69.90;;
22622;SDS011;11478;51.094;7.030;2022-12-16T15:59:29;197.60;;;62.40;;
22622;SDS011;11478;51.094;7.030;2022-12-16T16:08:01;272.38;;;65.57;;
22622;SDS011;11478;51.094;7.030;2022-12-16T16:10:45;204.38;;;64.47;;
22622;SDS011;11478;51.094;7.030;2022-12-16T16:13:30;191.60;;;63.72;;
22622;SDS011;11478;51.094;7.030;2022-12-16T16:16:14;224.38;;;65.55;;
22622;SDS011;11478;51.094;7.030;2022-12-16T16:18:59;191.63;;;61.72;;
22622;SDS011;11478;51.094;7.030;2022-12-16T16:24:32;207.25;;;63.65;;
22622;SDS011;11478;51.094;7.030;2022-12-16T16:27:16;221.10;;;58.92;;
22622;SDS011;11478;51.094;7.030;2022-12-16T16:30:02;193.60;;;57.30;;
22622;SDS011;11478;51.094;7.030;2022-12-16T16:32:49;178.88;;;51.90;;
22622;SDS011;11478;51.094;7.030;2022-12-16T16:35:34;215.45;;;57.40;;
22622;SDS011;11478;51.094;7.030;2022-12-16T16:38:18;176.55;;;54.03;;
22622;SDS011;11478;51.094;7.030;2022-12-16T16:41:03;174.57;;;52.97;;
22622;SDS011;11478;51.094;7.030;2022-12-16T16:46:36;166.75;;;53.25;;
22622;SDS011;11478;51.094;7.030;2022-12-16T16:49:32;167.07;;;50.22;;
22622;SDS011;11478;51.094;7.030;2022-12-16T16:52:21;193.52;;;53.97;;
22622;SDS011;11478;51.094;7.030;2022-12-16T16:55:19;231.27;;;57.63;;
22622;SDS011;11478;51.094;7.030;2022-12-16T16:58:26;186.52;;;54.38;;
22622;SDS011;11478;51.094;7.030;2022-12-16T17:01:11;168.98;;;52.83;;
22622;SDS011;11478;51.094;7.030;2022-12-16T17:03:57;216.57;;;60.97;;
22622;SDS011;11478;51.094;7.030;2022-12-16T17:06:48;243.50;;;64.95;;
22622;SDS011;11478;51.094;7.030;2022-12-16T17:09:33;236.45;;;60.97;;
22622;SDS011;11478;51.094;7.030;2022-12-16T17:12:21;293.88;;;60.70;;
22622;SDS011;11478;51.094;7.030;2022-12-16T17:15:21;248.07;;;59.75;;
22622;SDS011;11478;51.094;7.030;2022-12-16T17:18:08;208.73;;;57.63;;
22622;SDS011;11478;51.094;7.030;2022-12-16T17:20:53;216.30;;;59.78;;
22622;SDS011;11478;51.094;7.030;2022-12-16T17:23:38;198.45;;;58.05;;
22622;SDS011;11478;51.094;7.030;2022-12-16T17:26:23;202.13;;;60.30;;
22622;SDS011;11478;51.094;7.030;2022-12-16T17:29:19;197.48;;;58.25;;
22622;SDS011;11478;51.094;7.030;2022-12-16T17:32:08;185.10;;;56.97;;
22622;SDS011;11478;51.094;7.030;2022-12-16T17:34:53;214.18;;;58.22;;
22622;SDS011;11478;51.094;7.030;2022-12-16T17:37:37;194.18;;;58.45;;
22622;SDS011;11478;51.094;7.030;2022-12-16T17:40:24;191.50;;;59.42;;
22622;SDS011;11478;51.094;7.030;2022-12-16T17:43:09;190.05;;;57.40;;
22622;SDS011;11478;51.094;7.030;2022-12-16T17:45:55;186.65;;;56.85;;
22622;SDS011;11478;51.094;7.030;2022-12-16T17:48:44;187.95;;;56.50;;
22622;SDS011;11478;51.094;7.030;2022-12-16T17:51:37;187.90;;;57.13;;
22622;SDS011;11478;51.094;7.030;2022-12-16T17:54:23;189.50;;;56.85;;
22622;SDS011;11478;51.094;7.030;2022-12-16T17:57:08;206.13;;;59.05;;
22622;SDS011;11478;51.094;7.030;2022-12-16T17:59:54;207.68;;;55.58;;
22622;SDS011;11478;51.094;7.030;2022-12-16T18:02:38;167.07;;;53.15;;
22622;SDS011;11478;51.094;7.030;2022-12-16T18:05:23;217.52;;;60.95;;
22622;SDS011;11478;51.094;7.030;2022-12-16T18:08:07;228.05;;;58.95;;
22622;SDS011;11478;51.094;7.030;2022-12-16T18:10:52;193.23;;;54.97;;
22622;SDS011;11478;51.094;7.030;2022-12-16T18:13:38;206.07;;;58.03;;
22622;SDS011;11478;51.094;7.030;2022-12-16T18:16:24;185.55;;;57.08;;
22622;SDS011;11478;51.094;7.030;2022-12-16T18:19:10;205.18;;;58.38;;
22622;SDS011;11478;51.094;7.030;2022-12-16T18:22:01;208.85;;;57.97;;
22622;SDS011;11478;51.094;7.030;2022-12-16T18:24:51;163.50;;;50.30;;
22622;SDS011;11478;51.094;7.030;2022-12-16T18:27:41;178.18;;;54.17;;
22622;SDS011;11478;51.094;7.030;2022-12-16T18:30:28;190.98;;;53.35;;
22622;SDS011;11478;51.094;7.030;2022-12-16T18:35:57;184.35;;;52.05;;
22622;SDS011;11478;51.094;7.030;2022-12-16T18:38:49;221.48;;;53.00;;
22622;SDS011;11478;51.094;7.030;2022-12-16T18:41:40;181.57;;;53.30;;
22622;SDS011;11478;51.094;7.030;2022-12-16T18:44:29;197.43;;;53.47;;
22622;SDS011;11478;51.094;7.030;2022-12-16T18:47:14;193.13;;;52.55;;
22622;SDS011;11478;51.094;7.030;2022-12-16T18:50:05;215.05;;;54.17;;
22622;SDS011;11478;51.094;7.030;2022-12-16T18:52:50;189.15;;;53.22;;
22622;SDS011;11478;51.094;7.030;2022-12-16T18:55:35;224.27;;;55.33;;
22622;SDS011;11478;51.094;7.030;2022-12-16T18:58:19;240.68;;;52.60;;
22622;SDS011;11478;51.094;7.030;2022-12-16T19:01:08;189.90;;;51.90;;
22622;SDS011;11478;51.094;7.030;2022-12-16T19:03:56;206.60;;;54.05;;
22622;SDS011;11478;51.094;7.030;2022-12-16T19:06:41;173.98;;;51.65;;
22622;SDS011;11478;51.094;7.030;2022-12-16T19:09:26;181.20;;;51.38;;
22622;SDS011;11478;51.094;7.030;2022-12-16T19:12:13;279.80;;;53.00;;
22622;SDS011;11478;51.094;7.030;2022-12-16T19:14:57;171.57;;;51.38;;
22622;SDS011;11478;51.094;7.030;2022-12-16T19:17:42;183.50;;;50.58;;
22622;SDS011;11478;51.094;7.030;2022-12-16T19:20:29;186.23;;;51.63;;
22622;SDS011;11478;51.094;7.030;2022-12-16T19:23:13;229.32;;;56.05;;
22622;SDS011;11478;51.094;7.030;2022-12-16T19:28:50;182.27;;;52.25;;
22622;SDS011;11478;51.094;7.030;2022-12-16T19:34:18;154.23;;;40.38;;
22622;SDS011;11478;51.094;7.030;2022-12-16T19:37:10;215.98;;;57.03;;
22622;SDS011;11478;51.094;7.030;2022-12-16T19:39:57;177.48;;;54.55;;
22622;SDS011;11478;51.094;7.030;2022-12-16T19:42:42;180.40;;;54.33;;
22622;SDS011;11478;51.094;7.030;2022-12-16T19:45:32;171.13;;;53.20;;
22622;SDS011;11478;51.094;7.030;2022-12-16T19:48:19;182.82;;;51.72;;
22622;SDS011;11478;51.094;7.030;2022-12-16T19:51:03;157.93;;;53.35;;
22622;SDS011;11478;51.094;7.030;2022-12-16T19:53:54;168.25;;;51.08;;
22622;SDS011;11478;51.094;7.030;2022-12-16T19:56:39;163.90;;;52.30;;
22622;SDS011;11478;51.094;7.030;2022-12-16T19:59:24;162.27;;;50.88;;